Time;durP1;ratioP1;P1;durP2;ratioP2;P2;SDS_P1;SDS_P2;PMS_P1;PMS_P2;Temp;Humidity;BMP_temperature;BMP_pressure;BME280_temperature;BME280_humidity;BME280_pressure;Samples;Min_cycle;Max_cycle;Signal;HPM_P1;HPM_P2
2021/04/10 00:00:44;;;;;;;8.82;1.52;;;10.40;71.10;;;;;;4954938;28;20057;-87
2021/04/10 00:03:09;;;;;;;6.18;1.10;;;10.40;70.90;;;;;;4961704;28;20050;-87
2021/04/10 00:05:35;;;;;;;3.83;0.93;;;10.40;71.20;;;;;;4962081;28;20100;-86
2021/04/10 00:08:01;;;;;;;5.18;1.38;;;10.40;71.30;;;;;;4961874;28;20029;-87
2021/04/10 00:10:29;;;;;;;4.43;0.90;;;10.40;71.00;;;;;;4969738;28;20023;-86
2021/04/10 00:12:55;;;;;;;3.20;1.08;;;10.50;71.20;;;;;;4963966;28;20027;-86
2021/04/10 00:15:22;;;;;;;4.63;1.20;;;10.40;71.50;;;;;;4963200;28;20025;-87
2021/04/10 00:17:48;;;;;;;5.47;1.27;;;10.50;69.90;;;;;;4959351;28;20647;-87
2021/04/10 00:20:17;;;;;;;4.32;1.30;;;10.40;71.30;;;;;;4961230;28;20126;-87
2021/04/10 00:22:43;;;;;;;4.38;1.10;;;10.50;71.30;;;;;;4961507;28;20090;-87
2021/04/10 00:25:10;;;;;;;5.53;1.30;;;10.40;71.50;;;;;;4960687;28;20038;-87
2021/04/10 00:27:37;;;;;;;6.30;1.30;;;10.30;71.30;;;;;;4977626;28;20023;-87
2021/04/10 00:30:04;;;;;;;5.00;1.30;;;10.30;72.10;;;;;;4960515;28;20078;-88
2021/04/10 00:32:30;;;;;;;4.60;1.33;;;10.40;70.80;;;;;;4960999;28;20019;-87
2021/04/10 00:34:56;;;;;;;6.70;1.30;;;10.40;71.30;;;;;;4981269;28;20368;-87
2021/04/10 00:37:21;;;;;;;7.63;1.23;;;10.50;70.90;;;;;;4950885;28;20073;-87
2021/04/10 00:39:47;;;;;;;4.63;1.27;;;10.60;71.20;;;;;;4957741;28;20038;-86
2021/04/10 00:42:13;;;;;;;6.95;1.15;;;10.30;71.10;;;;;;4961018;28;20023;-86
2021/04/10 00:44:38;;;;;;;6.88;1.20;;;10.40;71.20;;;;;;4960474;28;20030;-87
2021/04/10 00:47:04;;;;;;;7.50;1.15;;;10.60;70.50;;;;;;4959307;28;20511;-87
2021/04/10 00:49:30;;;;;;;3.90;1.02;;;10.50;70.60;;;;;;4960077;28;20057;-88
2021/04/10 00:51:55;;;;;;;4.18;1.90;;;10.50;70.00;;;;;;4967101;28;20671;-87
2021/04/10 00:54:21;;;;;;;4.07;0.93;;;10.80;70.00;;;;;;4978677;28;20031;-87
2021/04/10 00:56:47;;;;;;;5.25;1.25;;;10.60;69.70;;;;;;4962384;28;20073;-87
2021/04/10 00:59:13;;;;;;;6.60;1.15;;;10.60;69.80;;;;;;4960523;28;20109;-87
2021/04/10 01:01:38;;;;;;;6.68;1.60;;;10.70;69.30;;;;;;4959904;28;20491;-86
2021/04/10 01:04:05;;;;;;;5.68;1.27;;;10.90;69.90;;;;;;4960079;28;20023;-87
2021/04/10 01:06:32;;;;;;;6.90;1.17;;;10.70;69.90;;;;;;4977167;28;20066;-87
2021/04/10 01:08:58;;;;;;;3.22;1.15;;;10.70;69.70;;;;;;4977546;28;20023;-87
2021/04/10 01:11:45;;;;;;;5.05;1.30;;;10.70;69.80;;;;;;4960161;28;20468;-87
2021/04/10 01:14:21;;;;;;;3.38;1.00;;;10.80;69.60;;;;;;4958064;28;20023;-87
2021/04/10 01:16:54;;;;;;;4.60;0.90;;;10.80;69.60;;;;;;4960125;28;20022;-88
2021/04/10 01:19:46;;;;;;;4.65;1.20;;;10.80;69.10;;;;;;4959576;28;20081;-87
2021/04/10 01:22:24;;;;;;;2.38;0.80;;;10.80;69.50;;;;;;4977931;28;20027;-87
2021/04/10 01:25:06;;;;;;;4.82;1.15;;;11.00;70.00;;;;;;4958698;28;20023;-87
2021/04/10 01:27:39;;;;;;;4.40;0.80;;;10.70;70.60;;;;;;4959987;28;20026;-87
2021/04/10 01:30:16;;;;;;;5.03;1.00;;;10.70;70.30;;;;;;4961556;28;20019;-87
2021/04/10 01:32:54;;;;;;;4.13;0.95;;;10.80;70.10;;;;;;4959581;28;20026;-87
2021/04/10 01:35:22;;;;;;;3.63;0.95;;;10.70;70.40;;;;;;4964840;28;20023;-87
2021/04/10 01:37:59;;;;;;;3.05;0.70;;;10.70;70.60;;;;;;4961198;28;20034;-87
2021/04/10 01:40:29;;;;;;;4.63;1.20;;;10.80;71.20;;;;;;4960074;28;20019;-87
2021/04/10 01:42:56;;;;;;;5.28;0.80;;;10.80;71.10;;;;;;4977801;28;20034;-87
2021/04/10 01:45:23;;;;;;;2.50;0.73;;;11.00;71.20;;;;;;4959871;28;20065;-87
2021/04/10 01:47:51;;;;;;;3.05;0.68;;;10.80;70.90;;;;;;4960069;28;20492;-86
2021/04/10 01:50:18;;;;;;;3.95;0.88;;;10.80;70.80;;;;;;4959771;28;20044;-87
2021/04/10 01:52:46;;;;;;;3.80;1.10;;;10.80;71.20;;;;;;4958951;28;20019;-87
2021/04/10 01:55:13;;;;;;;6.55;0.80;;;10.90;71.10;;;;;;4960032;28;20068;-87
2021/04/10 01:57:39;;;;;;;1.80;0.60;;;10.90;70.70;;;;;;4964247;28;20416;-87
2021/04/10 02:00:07;;;;;;;2.33;0.60;;;11.10;70.90;;;;;;4985183;28;20026;-88
2021/04/10 02:02:41;;;;;;;5.47;0.80;;;10.90;70.40;;;;;;4958875;28;20134;-87
2021/04/10 02:05:10;;;;;;;5.15;0.73;;;10.90;71.10;;;;;;4963609;28;20063;-87
2021/04/10 02:07:40;;;;;;;4.57;0.95;;;10.80;71.20;;;;;;4956459;28;20126;-87
2021/04/10 02:10:07;;;;;;;4.40;1.05;;;10.80;71.20;;;;;;4976887;28;20098;-87
2021/04/10 02:12:33;;;;;;;3.20;1.00;;;10.80;71.80;;;;;;4962228;28;20015;-86
2021/04/10 02:15:00;;;;;;;2.92;0.80;;;10.70;72.10;;;;;;4959884;28;20483;-87
2021/04/10 02:17:28;;;;;;;1.98;0.70;;;10.80;72.20;;;;;;4959142;28;20026;-86
2021/04/10 02:19:55;;;;;;;4.93;0.68;;;10.70;72.10;;;;;;4959149;28;20027;-87
2021/04/10 02:22:22;;;;;;;2.55;0.60;;;10.90;72.30;;;;;;4959427;28;20073;-86
2021/04/10 02:24:48;;;;;;;2.47;0.80;;;10.80;72.50;;;;;;4959024;28;20113;-86
2021/04/10 02:27:14;;;;;;;3.03;0.75;;;10.80;72.30;;;;;;4958930;28;20023;-87
2021/04/10 02:29:41;;;;;;;4.55;1.05;;;10.90;72.20;;;;;;4959185;28;20023;-87
2021/04/10 02:32:19;;;;;;;7.20;0.90;;;10.70;73.00;;;;;;4958664;28;20411;-86
2021/04/10 02:35:14;;;;;;;4.53;0.82;;;10.70;73.10;;;;;;4953663;28;20027;-87
2021/04/10 02:37:40;;;;;;;2.40;0.60;;;10.60;73.30;;;;;;4956408;28;20129;-87
2021/04/10 02:40:07;;;;;;;6.22;0.80;;;10.60;73.20;;;;;;4978448;28;20520;-88
2021/04/10 02:42:37;;;;;;;2.55;0.68;;;10.60;73.80;;;;;;4958658;28;20053;-87
2021/04/10 02:45:05;;;;;;;3.08;0.82;;;10.70;73.90;;;;;;4976904;28;21539;-87
2021/04/10 02:47:34;;;;;;;3.88;0.80;;;10.60;74.30;;;;;;4961099;28;20022;-87
2021/04/10 02:50:04;;;;;;;5.80;0.70;;;10.60;74.60;;;;;;4962669;28;20170;-87
2021/04/10 02:52:40;;;;;;;4.63;1.00;;;10.60;74.80;;;;;;4973880;28;20018;-86
2021/04/10 02:55:08;;;;;;;3.92;0.77;;;10.60;75.10;;;;;;4958763;28;20054;-87
2021/04/10 02:57:35;;;;;;;5.03;0.90;;;10.60;74.90;;;;;;4959345;28;20035;-87
2021/04/10 03:00:05;;;;;;;2.47;0.63;;;10.70;75.60;;;;;;4975931;28;20033;-87
2021/04/10 03:02:31;;;;;;;5.38;1.02;;;10.60;75.20;;;;;;4983460;28;20073;-87
2021/04/10 03:04:57;;;;;;;2.78;0.50;;;10.60;75.50;;;;;;4959008;28;20029;-87
2021/04/10 03:07:24;;;;;;;3.40;0.60;;;10.60;75.50;;;;;;4960111;28;20519;-88
2021/04/10 03:09:50;;;;;;;2.75;1.02;;;10.50;76.00;;;;;;4958391;28;20384;-87
2021/04/10 03:12:16;;;;;;;4.45;0.70;;;10.70;76.60;;;;;;4975480;28;20023;-88
2021/04/10 03:14:44;;;;;;;6.22;0.70;;;10.40;76.10;;;;;;4958366;28;20023;-87
2021/04/10 03:17:30;;;;;;;2.67;0.65;;;10.50;76.30;;;;;;4953790;28;20022;-87
2021/04/10 03:19:56;;;;;;;5.95;0.80;;;10.50;76.90;;;;;;4975198;28;20034;-87
2021/04/10 03:22:22;;;;;;;5.03;0.65;;;10.50;76.90;;;;;;4961039;28;20031;-86
2021/04/10 03:24:47;;;;;;;4.35;0.70;;;10.40;76.90;;;;;;4958292;28;20041;-87
2021/04/10 03:27:14;;;;;;;2.65;0.47;;;10.60;77.10;;;;;;4976507;28;20484;-88
2021/04/10 03:29:39;;;;;;;3.38;0.63;;;10.80;77.70;;;;;;4956720;28;20034;-88
2021/04/10 03:32:07;;;;;;;2.80;0.63;;;10.60;77.50;;;;;;4958500;28;20358;-88
2021/04/10 03:34:34;;;;;;;4.13;0.85;;;10.60;78.00;;;;;;4958069;28;20019;-89
2021/04/10 03:37:00;;;;;;;2.83;0.80;;;10.50;78.00;;;;;;4956687;28;20087;-87
2021/04/10 03:39:26;;;;;;;2.35;0.70;;;10.50;78.80;;;;;;4956402;28;20096;-88
2021/04/10 03:41:52;;;;;;;4.32;0.93;;;10.50;78.90;;;;;;4973959;28;20019;-88
2021/04/10 03:44:18;;;;;;;4.82;0.80;;;10.40;79.50;;;;;;4956685;28;20023;-88
2021/04/10 03:46:44;;;;;;;4.18;0.80;;;10.40;79.70;;;;;;4961413;28;20026;-87
2021/04/10 03:49:09;;;;;;;7.00;0.82;;;10.40;80.00;;;;;;4963472;28;20379;-88
2021/04/10 03:51:36;;;;;;;6.00;1.00;;;10.40;80.50;;;;;;4968503;28;20022;-88
2021/04/10 03:54:02;;;;;;;5.03;0.90;;;10.40;81.10;;;;;;4975708;28;20095;-87
2021/04/10 03:56:28;;;;;;;3.50;0.60;;;10.40;81.70;;;;;;4956409;29;20034;-88
2021/04/10 03:58:54;;;;;;;2.67;0.70;;;10.40;82.10;;;;;;4960553;28;20698;-87
2021/04/10 04:01:19;;;;;;;3.28;0.65;;;10.40;82.20;;;;;;4957918;28;20034;-86
2021/04/10 04:03:45;;;;;;;3.13;0.70;;;10.40;82.50;;;;;;4960749;28;20114;-86
2021/04/10 04:06:11;;;;;;;3.50;0.70;;;10.70;82.90;;;;;;4956933;28;20030;-87
2021/04/10 04:08:36;;;;;;;2.08;0.52;;;10.50;82.70;;;;;;4955770;28;20054;-87
2021/04/10 04:11:02;;;;;;;4.07;0.85;;;10.50;82.70;;;;;;4964308;28;20500;-88
2021/04/10 04:13:28;;;;;;;1.05;0.40;;;10.50;82.80;;;;;;4962938;28;20057;-87
2021/04/10 04:15:53;;;;;;;3.00;1.40;;;10.50;82.40;;;;;;4979651;28;20031;-87
2021/04/10 04:18:19;;;;;;;2.47;0.60;;;10.50;82.80;;;;;;4961001;28;20092;-87
2021/04/10 04:20:45;;;;;;;3.85;0.57;;;10.50;83.60;;;;;;4950617;28;20082;-87
2021/04/10 04:23:10;;;;;;;2.33;0.60;;;10.70;83.90;;;;;;4970913;28;20031;-87
2021/04/10 04:25:36;;;;;;;2.88;0.60;;;10.50;84.90;;;;;;4958254;28;20038;-87
2021/04/10 04:28:02;;;;;;;3.50;0.80;;;10.40;85.10;;;;;;4968131;28;20023;-87
2021/04/10 04:30:28;;;;;;;3.90;0.80;;;10.40;85.10;;;;;;4963956;28;20030;-88
2021/04/10 04:32:53;;;;;;;3.78;0.85;;;10.40;86.20;;;;;;4957948;28;20102;-87
2021/04/10 04:35:19;;;;;;;2.60;0.60;;;10.40;86.80;;;;;;4958374;28;20487;-87
2021/04/10 04:37:45;;;;;;;3.05;0.80;;;10.30;86.50;;;;;;4957945;28;20061;-87
2021/04/10 04:40:12;;;;;;;2.67;0.95;;;10.30;87.80;;;;;;4959961;28;20054;-88
2021/04/10 04:42:37;;;;;;;1.58;0.52;;;10.30;86.80;;;;;;4957653;28;20035;-88
2021/04/10 04:45:05;;;;;;;1.92;0.60;;;10.30;87.70;;;;;;4960459;28;20045;-87
2021/04/10 04:47:31;;;;;;;2.03;0.60;;;10.20;87.60;;;;;;4952141;28;20054;-87
2021/04/10 04:49:57;;;;;;;1.52;0.40;;;10.30;87.50;;;;;;4979191;28;20117;-87
2021/04/10 04:52:23;;;;;;;1.75;0.65;;;10.20;87.50;;;;;;4957631;28;20499;-87
2021/04/10 04:54:48;;;;;;;2.38;0.60;;;10.20;88.00;;;;;;4957433;28;20023;-87
2021/04/10 04:57:14;;;;;;;4.68;0.70;;;10.30;88.00;;;;;;4957475;28;20117;-86
2021/04/10 04:59:39;;;;;;;3.08;0.35;;;10.10;88.40;;;;;;4957187;28;20042;-87
2021/04/10 05:02:05;;;;;;;4.55;0.70;;;10.10;88.60;;;;;;4976089;28;20824;-88
2021/04/10 05:04:31;;;;;;;2.80;0.70;;;10.20;89.70;;;;;;4974755;28;20038;-88
2021/04/10 05:06:56;;;;;;;5.13;0.73;;;10.00;90.50;;;;;;4957639;28;20492;-87
2021/04/10 05:09:22;;;;;;;2.00;0.60;;;10.00;92.10;;;;;;4959296;28;20110;-88
2021/04/10 05:11:49;;;;;;;3.70;0.80;;;9.90;94.70;;;;;;4956785;28;20405;-87
2021/04/10 05:14:15;;;;;;;2.30;0.88;;;9.80;98.60;;;;;;4957273;28;20027;-87
2021/04/10 05:16:40;;;;;;;3.58;0.60;;;9.60;99.90;;;;;;4957527;28;20037;-87
2021/04/10 05:19:06;;;;;;;3.05;0.63;;;9.80;99.90;;;;;;4956951;28;20113;-87
2021/04/10 05:21:32;;;;;;;1.60;0.50;;;9.70;99.90;;;;;;4957177;28;20031;-87
2021/04/10 05:23:57;;;;;;;2.03;0.60;;;9.30;99.90;;;;;;4956541;28;20086;-87
2021/04/10 05:26:23;;;;;;;2.72;0.70;;;9.50;99.90;;;;;;4974541;28;20062;-87
2021/04/10 05:28:48;;;;;;;2.55;0.68;;;8.80;99.90;;;;;;4956724;28;20058;-87
2021/04/10 05:31:14;;;;;;;3.45;0.80;;;9.10;99.90;;;;;;4957100;28;20381;-88
2021/04/10 05:33:43;;;;;;;2.40;0.80;;;9.10;99.90;;;;;;4956677;28;20062;-87
2021/04/10 05:36:09;;;;;;;3.63;1.08;;;9.10;99.90;;;;;;4977248;28;20042;-87
2021/04/10 05:38:34;;;;;;;3.85;0.90;;;9.10;99.90;;;;;;4958028;28;20062;-87
2021/04/10 05:41:00;;;;;;;2.25;0.70;;;9.10;99.90;;;;;;4956236;28;20043;-87
2021/04/10 05:43:26;;;;;;;4.80;0.68;;;9.10;99.90;;;;;;4957503;28;20529;-88
2021/04/10 05:45:51;;;;;;;4.55;0.80;;;9.20;99.90;;;;;;4973815;28;20019;-87
2021/04/10 05:48:17;;;;;;;2.72;0.65;;;9.30;99.90;;;;;;4954859;28;20023;-87
2021/04/10 05:50:43;;;;;;;3.78;0.90;;;9.20;99.90;;;;;;4956162;28;20479;-87
2021/04/10 05:53:09;;;;;;;4.47;0.68;;;9.20;99.90;;;;;;4973733;28;20754;-88
2021/04/10 05:55:34;;;;;;;2.55;0.70;;;9.20;99.90;;;;;;4956505;28;20350;-87
2021/04/10 05:58:00;;;;;;;2.28;0.77;;;9.20;99.90;;;;;;4956277;28;20027;-87
2021/04/10 06:00:26;;;;;;;2.95;0.75;;;9.20;99.90;;;;;;4955712;28;20029;-88
2021/04/10 06:02:55;;;;;;;2.92;0.57;;;9.30;99.90;;;;;;4973435;28;20049;-88
2021/04/10 06:05:21;;;;;;;4.22;0.90;;;9.30;99.90;;;;;;4956145;28;20424;-87
2021/04/10 06:07:48;;;;;;;4.03;0.70;;;9.30;99.90;;;;;;4956075;28;20058;-87
2021/04/10 06:10:15;;;;;;;3.35;0.60;;;9.40;99.90;;;;;;4956643;28;20514;-87
2021/04/10 06:12:42;;;;;;;2.13;0.63;;;9.40;99.90;;;;;;4957249;28;20050;-87
2021/04/10 06:15:09;;;;;;;2.47;0.75;;;9.40;99.90;;;;;;4955958;28;20026;-87
2021/04/10 06:17:35;;;;;;;3.60;0.65;;;9.40;99.90;;;;;;4955747;28;20041;-86
2021/04/10 06:20:01;;;;;;;4.78;0.80;;;9.40;99.90;;;;;;4957426;28;20058;-87
2021/04/10 06:22:27;;;;;;;5.22;0.90;;;9.40;99.90;;;;;;4956235;28;20031;-87
2021/04/10 06:24:52;;;;;;;2.38;0.57;;;9.40;99.90;;;;;;4955804;28;20034;-87
2021/04/10 06:27:18;;;;;;;2.42;0.70;;;9.50;99.90;;;;;;4956117;28;20023;-87
2021/04/10 06:29:44;;;;;;;2.85;0.63;;;9.50;99.90;;;;;;4952340;28;20389;-87
2021/04/10 06:32:09;;;;;;;2.75;0.77;;;9.50;99.90;;;;;;4951635;28;20019;-87
2021/04/10 06:34:36;;;;;;;2.78;0.80;;;9.50;99.90;;;;;;4959301;28;20023;-87
2021/04/10 06:37:01;;;;;;;2.92;0.65;;;9.50;99.90;;;;;;4962467;28;20102;-87
2021/04/10 06:39:28;;;;;;;4.15;0.88;;;9.50;99.90;;;;;;4955602;28;20101;-87
2021/04/10 06:41:53;;;;;;;3.47;0.85;;;9.60;99.90;;;;;;4955373;28;20078;-87
2021/04/10 06:44:19;;;;;;;1.75;0.55;;;9.60;99.90;;;;;;4955243;28;20046;-87
2021/04/10 06:46:47;;;;;;;6.07;0.90;;;9.60;99.90;;;;;;4963038;28;20035;-88
2021/04/10 06:49:14;;;;;;;1.67;0.70;;;9.60;99.90;;;;;;4946657;28;20096;-87
2021/04/10 06:51:41;;;;;;;3.97;0.85;;;9.70;99.90;;;;;;4963196;28;20031;-87
2021/04/10 06:54:07;;;;;;;3.70;0.63;;;9.60;99.90;;;;;;4954368;28;20089;-87
2021/04/10 06:56:39;;;;;;;2.03;0.60;;;9.60;99.90;;;;;;4934023;28;20033;-88
2021/04/10 06:59:34;;;;;;;6.88;0.88;;;9.60;99.90;;;;;;4947152;28;20050;-87
2021/04/10 07:02:01;;;;;;;3.83;0.70;;;9.60;99.90;;;;;;4910785;28;20393;-87
2021/04/10 07:04:27;;;;;;;2.40;0.70;;;9.60;99.90;;;;;;4942271;28;20031;-87
2021/04/10 07:07:46;;;;;;;2.45;0.90;;;9.60;99.90;;;;;;4947926;28;20015;-88
2021/04/10 07:10:13;;;;;;;2.92;0.70;;;9.60;99.90;;;;;;4947306;28;20025;-87
2021/04/10 07:12:39;;;;;;;1.85;0.57;;;9.60;99.90;;;;;;4952430;28;20735;-88
2021/04/10 07:15:08;;;;;;;3.15;0.70;;;9.50;99.90;;;;;;4949745;28;20050;-87
2021/04/10 07:17:34;;;;;;;2.20;0.75;;;9.50;99.90;;;;;;4954311;28;20020;-87
2021/04/10 07:20:18;;;;;;;2.45;0.70;;;9.50;99.90;;;;;;4958475;28;20391;-87
2021/04/10 07:22:56;;;;;;;2.78;0.80;;;9.50;99.90;;;;;;4955602;28;20129;-87
2021/04/10 07:25:24;;;;;;;1.25;0.60;;;9.70;99.90;;;;;;4972767;28;20028;-89
2021/04/10 07:27:49;;;;;;;3.13;1.05;;;9.70;99.90;;;;;;4972410;28;20018;-88
2021/04/10 07:30:16;;;;;;;2.78;0.57;;;9.50;99.90;;;;;;4956812;28;20027;-87
2021/04/10 07:32:42;;;;;;;2.58;0.80;;;9.60;99.90;;;;;;4956904;28;20019;-87
2021/04/10 07:35:09;;;;;;;3.47;0.88;;;9.60;99.90;;;;;;4956819;28;20030;-87
2021/04/10 07:37:43;;;;;;;2.88;0.70;;;9.60;99.90;;;;;;4956671;28;20034;-87
2021/04/10 07:40:28;;;;;;;3.13;0.60;;;9.60;99.90;;;;;;4950057;28;20022;-87
2021/04/10 07:43:00;;;;;;;4.20;0.80;;;9.60;99.90;;;;;;4956856;28;20023;-87
2021/04/10 07:45:32;;;;;;;1.63;0.50;;;9.60;99.90;;;;;;4972538;28;20026;-87
2021/04/10 07:48:12;;;;;;;2.08;0.50;;;9.70;99.90;;;;;;4976282;28;20022;-87
2021/04/10 07:50:38;;;;;;;3.20;0.77;;;9.70;99.90;;;;;;4959846;28;20027;-87
2021/04/10 07:53:23;;;;;;;1.40;0.60;;;9.70;99.90;;;;;;4964056;28;20070;-87
2021/04/10 07:55:51;;;;;;;2.53;0.70;;;9.70;99.90;;;;;;4963464;28;20092;-86
2021/04/10 07:58:31;;;;;;;2.05;0.60;;;9.70;99.90;;;;;;4958342;28;20078;-87
2021/04/10 08:01:00;;;;;;;5.10;0.80;;;9.70;99.90;;;;;;4981667;28;20046;-87
2021/04/10 08:03:35;;;;;;;3.13;0.80;;;9.70;99.90;;;;;;4966027;28;20042;-87
2021/04/10 08:06:07;;;;;;;5.82;0.80;;;9.70;99.90;;;;;;4957453;28;20023;-87
2021/04/10 08:08:34;;;;;;;2.88;0.80;;;9.80;99.90;;;;;;4964951;28;20023;-88
2021/04/10 08:11:04;;;;;;;3.83;0.77;;;9.70;99.90;;;;;;4960811;28;20030;-88
2021/04/10 08:13:31;;;;;;;1.95;0.60;;;9.70;99.90;;;;;;4956682;28;20552;-87
2021/04/10 08:16:17;;;;;;;3.45;0.80;;;9.60;99.90;;;;;;4958350;28;20033;-88
2021/04/10 08:18:47;;;;;;;2.58;0.63;;;9.70;99.90;;;;;;4957848;28;20030;-88
2021/04/10 08:21:17;;;;;;;4.43;1.00;;;9.70;99.90;;;;;;4960199;28;20042;-88
2021/04/10 08:23:44;;;;;;;3.95;1.10;;;9.70;99.90;;;;;;4957594;28;20054;-86
2021/04/10 08:26:10;;;;;;;6.43;1.00;;;9.50;99.90;;;;;;4958774;28;20070;-86
2021/04/10 08:28:38;;;;;;;1.92;0.70;;;9.90;99.90;;;;;;4960382;28;20425;-87
2021/04/10 08:31:05;;;;;;;3.65;0.98;;;9.60;99.90;;;;;;4956654;28;20061;-88
2021/04/10 08:33:32;;;;;;;2.80;0.60;;;9.60;99.90;;;;;;4956765;28;20031;-88
2021/04/10 08:36:03;;;;;;;1.20;0.70;;;9.60;99.90;;;;;;4975566;28;20026;-88
2021/04/10 08:38:34;;;;;;;2.53;0.90;;;9.60;99.90;;;;;;4956570;28;20176;-88
2021/04/10 08:41:03;;;;;;;2.38;0.88;;;9.60;99.90;;;;;;4958324;28;20038;-87
2021/04/10 08:43:30;;;;;;;2.58;0.60;;;9.80;99.90;;;;;;4956232;28;20045;-88
2021/04/10 08:45:58;;;;;;;2.05;0.60;;;9.80;99.90;;;;;;4955752;28;20035;-91
2021/04/10 08:48:24;;;;;;;2.53;0.77;;;9.90;99.90;;;;;;4957938;28;20037;-91
2021/04/10 08:50:52;;;;;;;2.08;0.50;;;9.90;99.90;;;;;;4957781;28;20027;-91
2021/04/10 08:53:25;;;;;;;2.92;0.57;;;10.00;99.90;;;;;;4961338;28;20026;-92
2021/04/10 08:55:51;;;;;;;1.75;0.57;;;10.10;99.90;;;;;;4958568;28;20027;-91
2021/04/10 08:58:28;;;;;;;2.08;0.65;;;10.00;99.90;;;;;;4957763;28;20069;-91
2021/04/10 09:01:03;;;;;;;3.83;0.80;;;10.10;99.90;;;;;;4958344;28;20041;-89
2021/04/10 09:03:47;;;;;;;2.05;0.52;;;10.20;99.90;;;;;;4961513;28;20030;-88
2021/04/10 09:06:22;;;;;;;2.53;0.60;;;10.20;99.90;;;;;;4981007;28;20022;-87
2021/04/10 09:08:48;;;;;;;4.50;0.80;;;10.30;99.90;;;;;;4956938;28;20019;-87
2021/04/10 09:11:23;;;;;;;2.13;0.70;;;10.40;99.90;;;;;;4957761;28;20034;-87
2021/04/10 09:13:50;;;;;;;2.03;0.60;;;10.30;99.90;;;;;;4950569;28;20022;-87
2021/04/10 09:16:31;;;;;;;2.25;0.65;;;10.30;99.90;;;;;;4953432;28;20092;-87
2021/04/10 09:18:58;;;;;;;2.05;0.70;;;10.30;99.90;;;;;;4970494;28;20157;-87
2021/04/10 09:21:50;;;;;;;2.40;0.60;;;10.40;99.90;;;;;;4955734;28;20037;-87
2021/04/10 09:24:28;;;;;;;2.65;0.70;;;10.40;99.90;;;;;;4956923;28;20029;-86
2021/04/10 09:27:05;;;;;;;2.13;0.55;;;10.40;99.90;;;;;;4951629;28;20065;-87
2021/04/10 09:29:46;;;;;;;2.58;0.70;;;10.40;99.90;;;;;;4954665;28;20030;-87
2021/04/10 09:32:13;;;;;;;3.55;0.60;;;10.50;99.90;;;;;;4955607;28;20420;-87
2021/04/10 09:34:51;;;;;;;2.13;0.60;;;10.40;99.90;;;;;;4956387;28;20034;-87
2021/04/10 09:37:19;;;;;;;3.95;0.88;;;10.40;99.90;;;;;;4974565;28;20011;-86
2021/04/10 09:39:55;;;;;;;2.55;0.70;;;10.50;99.90;;;;;;4956760;28;20030;-87
2021/04/10 09:42:37;;;;;;;4.15;0.77;;;10.60;99.90;;;;;;4974553;28;20026;-87
2021/04/10 09:45:27;;;;;;;5.45;0.70;;;10.60;99.90;;;;;;4961518;28;20874;-87
2021/04/10 09:47:56;;;;;;;2.13;0.60;;;10.70;99.90;;;;;;4958204;28;20023;-87
2021/04/10 09:50:27;;;;;;;1.85;0.68;;;10.70;99.90;;;;;;4959869;28;20420;-87
2021/04/10 09:52:55;;;;;;;3.20;0.60;;;10.70;99.90;;;;;;4941779;28;20547;-87
2021/04/10 09:55:22;;;;;;;2.83;0.60;;;10.80;99.90;;;;;;4960561;28;20034;-87
2021/04/10 09:57:54;;;;;;;2.83;0.60;;;10.90;99.90;;;;;;4968724;28;20069;-87
2021/04/10 10:00:33;;;;;;;1.08;0.43;;;10.90;99.90;;;;;;4961872;28;20027;-87
2021/04/10 10:03:04;;;;;;;2.60;0.50;;;10.80;99.90;;;;;;4965202;28;20078;-87
2021/04/10 10:05:33;;;;;;;5.95;0.68;;;10.90;99.90;;;;;;4973404;28;20022;-86
2021/04/10 10:08:06;;;;;;;4.13;0.55;;;10.90;99.90;;;;;;4951926;28;20029;-87
2021/04/10 10:10:38;;;;;;;2.85;0.80;;;10.90;99.90;;;;;;4952472;28;20019;-87
2021/04/10 10:13:09;;;;;;;2.67;0.88;;;10.90;99.90;;;;;;4957468;28;20106;-87
2021/04/10 10:15:35;;;;;;;4.22;0.50;;;11.00;99.90;;;;;;4955943;28;20122;-87
2021/04/10 10:18:17;;;;;;;2.28;0.60;;;11.10;99.90;;;;;;4953071;29;20062;-87
2021/04/10 10:20:59;;;;;;;2.67;0.70;;;11.10;99.90;;;;;;4956380;28;20041;-87
2021/04/10 10:23:33;;;;;;;1.77;0.60;;;11.10;99.90;;;;;;4956335;28;20110;-87
2021/04/10 10:26:12;;;;;;;4.57;0.50;;;11.20;99.90;;;;;;4956009;28;20026;-87
2021/04/10 10:28:41;;;;;;;2.80;0.50;;;11.20;99.90;;;;;;4956056;28;20439;-89
2021/04/10 10:31:12;;;;;;;4.35;0.55;;;11.30;99.90;;;;;;4973237;28;20550;-88
2021/04/10 10:33:39;;;;;;;2.03;0.65;;;11.30;99.90;;;;;;4956569;28;20031;-88
2021/04/10 10:36:06;;;;;;;2.80;0.68;;;11.30;99.90;;;;;;4947408;28;20584;-88
2021/04/10 10:38:35;;;;;;;2.30;0.50;;;11.40;99.90;;;;;;4972394;28;20081;-87
2021/04/10 10:41:02;;;;;;;2.38;0.50;;;11.40;99.90;;;;;;4949573;28;20026;-88
2021/04/10 10:43:28;;;;;;;3.22;0.75;;;11.30;99.90;;;;;;4954905;28;20038;-88
2021/04/10 10:45:59;;;;;;;2.35;0.93;;;11.30;99.90;;;;;;4959887;28;20023;-88
2021/04/10 10:48:27;;;;;;;0.95;0.47;;;11.30;99.90;;;;;;4955459;28;20074;-88
2021/04/10 10:51:01;;;;;;;3.65;0.75;;;11.30;99.90;;;;;;4960309;28;20126;-87
2021/04/10 10:53:37;;;;;;;2.53;0.57;;;11.30;99.90;;;;;;4956665;28;20026;-89
2021/04/10 10:56:13;;;;;;;4.40;0.70;;;11.40;99.90;;;;;;4955681;28;20046;-89
2021/04/10 10:58:49;;;;;;;4.95;0.68;;;11.50;99.90;;;;;;4956131;28;20031;-88
2021/04/10 11:01:17;;;;;;;1.42;0.50;;;11.50;99.90;;;;;;4955986;28;20031;-88
2021/04/10 11:03:50;;;;;;;2.72;0.60;;;11.50;99.90;;;;;;4955856;28;20037;-88
2021/04/10 11:06:29;;;;;;;2.92;0.50;;;11.60;99.90;;;;;;4955386;28;20554;-89
2021/04/10 11:08:55;;;;;;;2.42;0.50;;;11.60;99.30;;;;;;4972721;28;20023;-88
2021/04/10 11:11:27;;;;;;;3.17;0.68;;;11.80;98.90;;;;;;4970137;28;20022;-87
2021/04/10 11:13:53;;;;;;;2.25;0.30;;;12.00;98.80;;;;;;4953224;28;20503;-89
2021/04/10 11:16:19;;;;;;;0.73;0.40;;;12.10;98.90;;;;;;4951173;28;20138;-87
2021/04/10 11:18:45;;;;;;;3.15;0.50;;;12.30;97.10;;;;;;4953556;28;20519;-88
2021/04/10 11:21:14;;;;;;;3.10;0.40;;;12.40;97.20;;;;;;4954048;28;20094;-88
2021/04/10 11:24:00;;;;;;;1.58;0.30;;;12.50;95.50;;;;;;4953834;28;20042;-89
2021/04/10 11:26:39;;;;;;;2.30;0.40;;;12.60;95.70;;;;;;4953076;28;20118;-89
2021/04/10 11:29:28;;;;;;;2.60;0.43;;;12.70;95.00;;;;;;4970371;28;20441;-88
2021/04/10 11:32:15;;;;;;;1.88;0.40;;;12.80;94.00;;;;;;4952991;28;20022;-88
2021/04/10 11:34:47;;;;;;;1.08;0.38;;;12.90;93.60;;;;;;4953101;28;20031;-89
2021/04/10 11:37:15;;;;;;;4.45;0.70;;;12.90;93.80;;;;;;4952752;28;20432;-88
2021/04/10 11:40:00;;;;;;;3.58;0.60;;;13.20;94.00;;;;;;4957044;28;20035;-89
2021/04/10 11:42:28;;;;;;;1.88;0.40;;;13.10;92.60;;;;;;4953405;28;20023;-88
2021/04/10 11:44:56;;;;;;;1.48;0.47;;;13.30;91.80;;;;;;4972892;28;20508;-89
2021/04/10 11:47:30;;;;;;;2.63;0.40;;;13.50;91.90;;;;;;4952872;28;20022;-88
2021/04/10 11:50:19;;;;;;;1.00;0.50;;;13.50;92.00;;;;;;4955227;28;20435;-87
2021/04/10 11:52:47;;;;;;;1.70;0.30;;;13.40;90.80;;;;;;4956558;28;20097;-88
2021/04/10 11:55:19;;;;;;;3.60;0.30;;;13.50;89.30;;;;;;4974720;28;20736;-89
2021/04/10 11:57:57;;;;;;;;;;;13.40;90.70;;;;;;4957568;28;20656;-89
2021/04/10 12:00:27;;;;;;;1.15;0.40;;;13.40;89.70;;;;;;4958492;28;19989;-89
2021/04/10 12:03:05;;;;;;;4.35;0.30;;;13.40;89.90;;;;;;4960106;28;20034;-88
2021/04/10 12:05:36;;;;;;;2.85;0.38;;;13.40;89.00;;;;;;4958925;28;20034;-89
2021/04/10 12:08:13;;;;;;;2.17;0.30;;;13.60;89.00;;;;;;4958627;28;20037;-88
2021/04/10 12:10:49;;;;;;;0.45;0.20;;;13.60;88.80;;;;;;4955632;28;21169;-88
2021/04/10 12:13:17;;;;;;;1.63;0.30;;;13.70;85.90;;;;;;4971038;28;20218;-88
2021/04/10 12:15:43;;;;;;;1.45;0.40;;;14.10;84.30;;;;;;4969727;28;20439;-89
2021/04/10 12:18:10;;;;;;;1.90;0.30;;;14.40;83.60;;;;;;4972935;28;20809;-89
2021/04/10 12:20:40;;;;;;;4.28;0.40;;;14.70;82.70;;;;;;4956709;28;20130;-88
2021/04/10 12:23:08;;;;;;;2.17;0.70;;;15.00;80.70;;;;;;4961044;28;20077;-88
2021/04/10 12:25:35;;;;;;;0.90;0.30;;;15.40;80.80;;;;;;4960149;28;20118;-88
2021/04/10 12:28:02;;;;;;;1.05;0.30;;;15.40;76.90;;;;;;4957540;28;20019;-90
2021/04/10 12:30:28;;;;;;;1.67;0.45;;;15.50;77.10;;;;;;4950259;28;20036;-89
2021/04/10 12:32:54;;;;;;;1.50;0.20;;;15.70;76.80;;;;;;4975380;28;20076;-89
2021/04/10 12:35:22;;;;;;;1.33;0.30;;;15.70;74.30;;;;;;4959959;28;20368;-88
2021/04/10 12:37:47;;;;;;;1.38;0.40;;;16.20;73.80;;;;;;4961195;28;20125;-88
2021/04/10 12:40:14;;;;;;;2.55;0.40;;;16.50;71.50;;;;;;4977848;28;20061;-89
2021/04/10 12:42:40;;;;;;;3.63;0.40;;;16.70;70.30;;;;;;4959638;28;20039;-89
2021/04/10 12:45:07;;;;;;;3.10;0.50;;;16.50;69.20;;;;;;4960873;28;20044;-89
2021/04/10 12:47:33;;;;;;;2.05;0.40;;;16.30;67.30;;;;;;4978070;28;20131;-90
2021/04/10 12:49:59;;;;;;;1.75;0.30;;;16.50;67.70;;;;;;4960053;28;20488;-89
2021/04/10 12:52:25;;;;;;;1.00;0.30;;;16.40;65.80;;;;;;4967108;28;20022;-88
2021/04/10 12:54:51;;;;;;;2.15;0.32;;;17.00;66.50;;;;;;4960749;28;20023;-89
2021/04/10 12:57:17;;;;;;;1.00;0.32;;;16.90;63.00;;;;;;4956345;29;20023;-89
2021/04/10 12:59:43;;;;;;;1.85;0.30;;;17.20;64.40;;;;;;4962952;28;20033;-89
2021/04/10 13:02:09;;;;;;;2.70;0.30;;;17.40;62.00;;;;;;4978409;28;20396;-89